South Deerfield, Massachusetts
Current Conditions -  °F | °C
As of 4:52 AM on Saturday 22 Nov 2014 (Local Time) from KORE Reporting Station
Clear Clear  
Wind Chill: 14°   Ceiling: Unl
Heat Index: 14°   Visibility: 10mi
Dew Point: 10°   Wind: 0mph
Humidity: 84%   Direction: NA
Pressure: 30.4"   Gusts: NA
Location:  42.48°N, 72.61°W
Report Text: KORE 220952Z AUTO 00000KT 10SM CLR M10/M12 A3040 RMK AO2 SLP305 T11001122
Loading
Personal Weather Stations






























Interactive Weather Map New forecast layout! Learn more

10-Day Weather Forecast

Advertisements
Track Severe Weather on mobile